sensor_id;sensor_type;location;lat;lon;timestamp;P1;durP1;ratioP1;P2;durP2;ratioP2
33357;SDS011;19717;42.614;23.418;2023-06-14T00:00:44;2.70;;;2.50;;
33357;SDS011;19717;42.614;23.418;2023-06-14T00:03:13;2.22;;;2.10;;
33357;SDS011;19717;42.614;23.418;2023-06-14T00:05:45;2.00;;;1.90;;
33357;SDS011;19717;42.614;23.418;2023-06-14T00:08:12;3.97;;;1.90;;
33357;SDS011;19717;42.614;23.418;2023-06-14T00:10:41;1.95;;;1.85;;
33357;SDS011;19717;42.614;23.418;2023-06-14T00:13:08;2.50;;;2.30;;
33357;SDS011;19717;42.614;23.418;2023-06-14T00:15:34;2.50;;;2.30;;
33357;SDS011;19717;42.614;23.418;2023-06-14T00:18:01;3.47;;;2.38;;
33357;SDS011;19717;42.614;23.418;2023-06-14T00:20:27;2.13;;;2.00;;
33357;SDS011;19717;42.614;23.418;2023-06-14T00:22:54;2.40;;;2.20;;
33357;SDS011;19717;42.614;23.418;2023-06-14T00:25:22;3.35;;;2.10;;
33357;SDS011;19717;42.614;23.418;2023-06-14T00:27:48;2.35;;;2.15;;
33357;SDS011;19717;42.614;23.418;2023-06-14T00:30:14;2.60;;;2.38;;
33357;SDS011;19717;42.614;23.418;2023-06-14T00:32:40;2.00;;;1.90;;
33357;SDS011;19717;42.614;23.418;2023-06-14T00:35:08;2.10;;;2.00;;
33357;SDS011;19717;42.614;23.418;2023-06-14T00:37:34;1.80;;;1.70;;
33357;SDS011;19717;42.614;23.418;2023-06-14T00:40:00;2.00;;;1.90;;
33357;SDS011;19717;42.614;23.418;2023-06-14T00:42:27;2.13;;;1.80;;
33357;SDS011;19717;42.614;23.418;2023-06-14T00:44:53;2.05;;;1.90;;
33357;SDS011;19717;42.614;23.418;2023-06-14T00:47:19;1.92;;;1.83;;
33357;SDS011;19717;42.614;23.418;2023-06-14T00:49:46;2.30;;;1.60;;
33357;SDS011;19717;42.614;23.418;2023-06-14T00:52:13;2.10;;;1.88;;
33357;SDS011;19717;42.614;23.418;2023-06-14T00:54:42;1.98;;;1.85;;
33357;SDS011;19717;42.614;23.418;2023-06-14T00:57:09;1.70;;;1.60;;
33357;SDS011;19717;42.614;23.418;2023-06-14T00:59:38;1.70;;;1.60;;
33357;SDS011;19717;42.614;23.418;2023-06-14T01:02:06;1.70;;;1.60;;
33357;SDS011;19717;42.614;23.418;2023-06-14T01:04:32;3.50;;;2.50;;
33357;SDS011;19717;42.614;23.418;2023-06-14T01:07:02;2.83;;;2.58;;
33357;SDS011;19717;42.614;23.418;2023-06-14T01:09:46;2.78;;;2.47;;
33357;SDS011;19717;42.614;23.418;2023-06-14T01:12:15;2.38;;;1.92;;
33357;SDS011;19717;42.614;23.418;2023-06-14T01:14:42;1.90;;;1.80;;
33357;SDS011;19717;42.614;23.418;2023-06-14T01:17:08;1.95;;;1.85;;
33357;SDS011;19717;42.614;23.418;2023-06-14T01:19:42;2.20;;;1.98;;
33357;SDS011;19717;42.614;23.418;2023-06-14T01:22:08;2.03;;;1.92;;
33357;SDS011;19717;42.614;23.418;2023-06-14T01:24:34;1.67;;;1.58;;
33357;SDS011;19717;42.614;23.418;2023-06-14T01:27:00;1.80;;;1.70;;
33357;SDS011;19717;42.614;23.418;2023-06-14T01:29:27;1.70;;;1.60;;
33357;SDS011;19717;42.614;23.418;2023-06-14T01:31:58;1.60;;;1.50;;
33357;SDS011;19717;42.614;23.418;2023-06-14T01:34:24;1.35;;;1.35;;
33357;SDS011;19717;42.614;23.418;2023-06-14T01:36:50;2.45;;;1.60;;
33357;SDS011;19717;42.614;23.418;2023-06-14T01:39:17;2.00;;;1.90;;
33357;SDS011;19717;42.614;23.418;2023-06-14T01:41:44;1.90;;;1.80;;
33357;SDS011;19717;42.614;23.418;2023-06-14T01:44:11;2.10;;;2.00;;
33357;SDS011;19717;42.614;23.418;2023-06-14T01:46:38;2.00;;;1.90;;
33357;SDS011;19717;42.614;23.418;2023-06-14T01:49:04;1.90;;;1.77;;
33357;SDS011;19717;42.614;23.418;2023-06-14T01:51:30;1.50;;;1.40;;
33357;SDS011;19717;42.614;23.418;2023-06-14T01:53:56;2.17;;;1.60;;
33357;SDS011;19717;42.614;23.418;2023-06-14T01:56:22;2.63;;;1.60;;
33357;SDS011;19717;42.614;23.418;2023-06-14T01:58:49;1.50;;;1.40;;
33357;SDS011;19717;42.614;23.418;2023-06-14T02:01:15;3.45;;;1.60;;
33357;SDS011;19717;42.614;23.418;2023-06-14T02:03:41;1.80;;;1.70;;
33357;SDS011;19717;42.614;23.418;2023-06-14T02:06:09;2.40;;;1.60;;
33357;SDS011;19717;42.614;23.418;2023-06-14T02:08:35;2.03;;;1.80;;
33357;SDS011;19717;42.614;23.418;2023-06-14T02:11:01;2.00;;;1.85;;
33357;SDS011;19717;42.614;23.418;2023-06-14T02:13:27;2.22;;;2.05;;
33357;SDS011;19717;42.614;23.418;2023-06-14T02:15:53;1.77;;;1.65;;
33357;SDS011;19717;42.614;23.418;2023-06-14T02:18:20;1.95;;;1.85;;
33357;SDS011;19717;42.614;23.418;2023-06-14T02:20:46;1.98;;;1.88;;
33357;SDS011;19717;42.614;23.418;2023-06-14T02:23:12;2.00;;;1.90;;
33357;SDS011;19717;42.614;23.418;2023-06-14T02:25:38;1.77;;;1.67;;
33357;SDS011;19717;42.614;23.418;2023-06-14T02:28:05;1.70;;;1.60;;
33357;SDS011;19717;42.614;23.418;2023-06-14T02:30:31;1.80;;;1.70;;
33357;SDS011;19717;42.614;23.418;2023-06-14T02:32:57;1.98;;;1.88;;
33357;SDS011;19717;42.614;23.418;2023-06-14T02:35:24;1.73;;;1.63;;
33357;SDS011;19717;42.614;23.418;2023-06-14T02:37:51;1.70;;;1.60;;
33357;SDS011;19717;42.614;23.418;2023-06-14T02:40:18;2.00;;;1.90;;
33357;SDS011;19717;42.614;23.418;2023-06-14T02:42:44;1.85;;;1.70;;
33357;SDS011;19717;42.614;23.418;2023-06-14T02:45:10;1.75;;;1.60;;
33357;SDS011;19717;42.614;23.418;2023-06-14T02:47:36;2.10;;;1.70;;
33357;SDS011;19717;42.614;23.418;2023-06-14T02:50:02;1.75;;;1.65;;
33357;SDS011;19717;42.614;23.418;2023-06-14T02:52:28;1.58;;;1.48;;
33357;SDS011;19717;42.614;23.418;2023-06-14T02:54:54;1.42;;;1.40;;
33357;SDS011;19717;42.614;23.418;2023-06-14T02:57:22;1.70;;;1.60;;
33357;SDS011;19717;42.614;23.418;2023-06-14T02:59:48;1.77;;;1.67;;
33357;SDS011;19717;42.614;23.418;2023-06-14T03:02:14;1.73;;;1.63;;
33357;SDS011;19717;42.614;23.418;2023-06-14T03:04:40;1.98;;;1.88;;
33357;SDS011;19717;42.614;23.418;2023-06-14T03:07:08;1.73;;;1.63;;
33357;SDS011;19717;42.614;23.418;2023-06-14T03:09:36;1.67;;;1.58;;
33357;SDS011;19717;42.614;23.418;2023-06-14T03:12:03;1.85;;;1.75;;
33357;SDS011;19717;42.614;23.418;2023-06-14T03:14:29;1.92;;;1.83;;
33357;SDS011;19717;42.614;23.418;2023-06-14T03:16:56;2.00;;;1.90;;
33357;SDS011;19717;42.614;23.418;2023-06-14T03:19:22;2.00;;;1.90;;
33357;SDS011;19717;42.614;23.418;2023-06-14T03:21:48;1.73;;;1.63;;
33357;SDS011;19717;42.614;23.418;2023-06-14T03:24:14;1.98;;;1.60;;
33357;SDS011;19717;42.614;23.418;2023-06-14T03:26:43;1.90;;;1.75;;
33357;SDS011;19717;42.614;23.418;2023-06-14T03:29:09;1.70;;;1.60;;
33357;SDS011;19717;42.614;23.418;2023-06-14T03:31:35;1.92;;;1.83;;
33357;SDS011;19717;42.614;23.418;2023-06-14T03:34:01;1.83;;;1.73;;
33357;SDS011;19717;42.614;23.418;2023-06-14T03:36:27;1.70;;;1.60;;
33357;SDS011;19717;42.614;23.418;2023-06-14T03:38:53;2.95;;;1.70;;
33357;SDS011;19717;42.614;23.418;2023-06-14T03:41:20;2.00;;;1.90;;
33357;SDS011;19717;42.614;23.418;2023-06-14T03:43:46;2.10;;;1.90;;
33357;SDS011;19717;42.614;23.418;2023-06-14T03:46:12;2.00;;;1.90;;
33357;SDS011;19717;42.614;23.418;2023-06-14T03:48:38;2.53;;;1.77;;
33357;SDS011;19717;42.614;23.418;2023-06-14T03:51:05;1.80;;;1.70;;
33357;SDS011;19717;42.614;23.418;2023-06-14T03:53:31;1.73;;;1.63;;
33357;SDS011;19717;42.614;23.418;2023-06-14T03:55:57;1.70;;;1.60;;
33357;SDS011;19717;42.614;23.418;2023-06-14T03:58:25;1.58;;;1.48;;
33357;SDS011;19717;42.614;23.418;2023-06-14T04:00:50;3.10;;;1.60;;
33357;SDS011;19717;42.614;23.418;2023-06-14T04:03:16;1.73;;;1.63;;
33357;SDS011;19717;42.614;23.418;2023-06-14T04:05:44;1.85;;;1.52;;
33357;SDS011;19717;42.614;23.418;2023-06-14T04:08:14;1.80;;;1.70;;
33357;SDS011;19717;42.614;23.418;2023-06-14T04:10:41;1.75;;;1.65;;
33357;SDS011;19717;42.614;23.418;2023-06-14T04:13:07;1.85;;;1.75;;
33357;SDS011;19717;42.614;23.418;2023-06-14T04:15:33;1.80;;;1.70;;
33357;SDS011;19717;42.614;23.418;2023-06-14T04:17:59;1.80;;;1.70;;
33357;SDS011;19717;42.614;23.418;2023-06-14T04:20:25;1.77;;;1.67;;
33357;SDS011;19717;42.614;23.418;2023-06-14T04:22:51;1.75;;;1.65;;
33357;SDS011;19717;42.614;23.418;2023-06-14T04:25:17;1.98;;;1.88;;
33357;SDS011;19717;42.614;23.418;2023-06-14T04:27:43;2.08;;;1.98;;
33357;SDS011;19717;42.614;23.418;2023-06-14T04:30:09;1.88;;;1.77;;
33357;SDS011;19717;42.614;23.418;2023-06-14T04:32:36;1.98;;;1.88;;
33357;SDS011;19717;42.614;23.418;2023-06-14T04:35:05;1.85;;;1.75;;
33357;SDS011;19717;42.614;23.418;2023-06-14T04:37:32;1.60;;;1.52;;
33357;SDS011;19717;42.614;23.418;2023-06-14T04:39:58;1.73;;;1.63;;
33357;SDS011;19717;42.614;23.418;2023-06-14T04:42:24;1.67;;;1.58;;
33357;SDS011;19717;42.614;23.418;2023-06-14T04:44:55;1.77;;;1.67;;
33357;SDS011;19717;42.614;23.418;2023-06-14T04:47:22;1.70;;;1.60;;
33357;SDS011;19717;42.614;23.418;2023-06-14T04:49:49;1.75;;;1.65;;
33357;SDS011;19717;42.614;23.418;2023-06-14T04:52:18;1.80;;;1.70;;
33357;SDS011;19717;42.614;23.418;2023-06-14T04:54:45;1.90;;;1.80;;
33357;SDS011;19717;42.614;23.418;2023-06-14T04:57:11;1.65;;;1.55;;
33357;SDS011;19717;42.614;23.418;2023-06-14T04:59:45;1.83;;;1.70;;
33357;SDS011;19717;42.614;23.418;2023-06-14T05:02:11;1.30;;;1.30;;
33357;SDS011;19717;42.614;23.418;2023-06-14T05:04:37;1.60;;;1.50;;
33357;SDS011;19717;42.614;23.418;2023-06-14T05:07:06;1.42;;;1.33;;
33357;SDS011;19717;42.614;23.418;2023-06-14T05:09:32;1.80;;;1.70;;
33357;SDS011;19717;42.614;23.418;2023-06-14T05:11:58;1.92;;;1.80;;
33357;SDS011;19717;42.614;23.418;2023-06-14T05:14:25;1.55;;;1.45;;
33357;SDS011;19717;42.614;23.418;2023-06-14T05:16:51;1.70;;;1.60;;
33357;SDS011;19717;42.614;23.418;2023-06-14T05:19:18;1.80;;;1.70;;
33357;SDS011;19717;42.614;23.418;2023-06-14T05:21:45;2.35;;;2.25;;
33357;SDS011;19717;42.614;23.418;2023-06-14T05:24:12;4.90;;;2.20;;
33357;SDS011;19717;42.614;23.418;2023-06-14T05:26:38;2.60;;;2.40;;
33357;SDS011;19717;42.614;23.418;2023-06-14T05:29:05;2.55;;;2.35;;
33357;SDS011;19717;42.614;23.418;2023-06-14T05:31:31;3.03;;;2.13;;
33357;SDS011;19717;42.614;23.418;2023-06-14T05:33:57;2.40;;;2.30;;
33357;SDS011;19717;42.614;23.418;2023-06-14T05:36:23;2.65;;;2.45;;
33357;SDS011;19717;42.614;23.418;2023-06-14T05:38:50;2.58;;;2.30;;
33357;SDS011;19717;42.614;23.418;2023-06-14T05:41:16;2.60;;;2.40;;
33357;SDS011;19717;42.614;23.418;2023-06-14T05:43:42;2.70;;;2.50;;
33357;SDS011;19717;42.614;23.418;2023-06-14T05:46:08;2.85;;;2.63;;
33357;SDS011;19717;42.614;23.418;2023-06-14T05:48:34;2.67;;;2.47;;
33357;SDS011;19717;42.614;23.418;2023-06-14T05:51:00;3.17;;;2.90;;
33357;SDS011;19717;42.614;23.418;2023-06-14T05:53:26;3.10;;;2.90;;
33357;SDS011;19717;42.614;23.418;2023-06-14T05:55:52;3.00;;;2.80;;
33357;SDS011;19717;42.614;23.418;2023-06-14T05:58:19;2.80;;;2.60;;
33357;SDS011;19717;42.614;23.418;2023-06-14T06:00:45;3.10;;;2.80;;
33357;SDS011;19717;42.614;23.418;2023-06-14T06:03:11;4.13;;;3.35;;
33357;SDS011;19717;42.614;23.418;2023-06-14T06:05:38;3.50;;;3.20;;
33357;SDS011;19717;42.614;23.418;2023-06-14T06:08:04;3.20;;;3.00;;
33357;SDS011;19717;42.614;23.418;2023-06-14T06:10:30;3.50;;;3.30;;
33357;SDS011;19717;42.614;23.418;2023-06-14T06:12:56;3.08;;;2.88;;
33357;SDS011;19717;42.614;23.418;2023-06-14T06:15:22;3.30;;;3.00;;
33357;SDS011;19717;42.614;23.418;2023-06-14T06:17:48;2.90;;;2.70;;
33357;SDS011;19717;42.614;23.418;2023-06-14T06:20:16;2.90;;;2.70;;
33357;SDS011;19717;42.614;23.418;2023-06-14T06:22:42;2.80;;;2.60;;
33357;SDS011;19717;42.614;23.418;2023-06-14T06:25:08;4.25;;;3.25;;
33357;SDS011;19717;42.614;23.418;2023-06-14T06:27:34;2.90;;;2.70;;
33357;SDS011;19717;42.614;23.418;2023-06-14T06:30:02;2.88;;;2.67;;
33357;SDS011;19717;42.614;23.418;2023-06-14T06:32:28;4.68;;;3.08;;
33357;SDS011;19717;42.614;23.418;2023-06-14T06:34:54;3.38;;;3.08;;
33357;SDS011;19717;42.614;23.418;2023-06-14T06:37:20;3.17;;;2.90;;
33357;SDS011;19717;42.614;23.418;2023-06-14T06:39:46;2.92;;;2.72;;
33357;SDS011;19717;42.614;23.418;2023-06-14T06:42:12;2.88;;;2.67;;
33357;SDS011;19717;42.614;23.418;2023-06-14T06:44:38;2.83;;;2.63;;
33357;SDS011;19717;42.614;23.418;2023-06-14T06:47:05;3.85;;;3.22;;
33357;SDS011;19717;42.614;23.418;2023-06-14T06:49:31;3.70;;;2.72;;
33357;SDS011;19717;42.614;23.418;2023-06-14T06:52:00;2.40;;;2.30;;
33357;SDS011;19717;42.614;23.418;2023-06-14T06:54:30;2.90;;;2.70;;
33357;SDS011;19717;42.614;23.418;2023-06-14T06:56:56;2.60;;;2.45;;
33357;SDS011;19717;42.614;23.418;2023-06-14T06:59:22;2.97;;;2.78;;
33357;SDS011;19717;42.614;23.418;2023-06-14T07:01:48;3.00;;;2.80;;
33357;SDS011;19717;42.614;23.418;2023-06-14T07:04:14;2.72;;;2.53;;
33357;SDS011;19717;42.614;23.418;2023-06-14T07:06:41;3.10;;;2.90;;
33357;SDS011;19717;42.614;23.418;2023-06-14T07:09:07;2.53;;;2.33;;
33357;SDS011;19717;42.614;23.418;2023-06-14T07:11:37;2.72;;;2.53;;
33357;SDS011;19717;42.614;23.418;2023-06-14T07:14:04;2.70;;;2.50;;
33357;SDS011;19717;42.614;23.418;2023-06-14T07:16:30;3.00;;;2.80;;
33357;SDS011;19717;42.614;23.418;2023-06-14T07:18:56;3.10;;;2.80;;
33357;SDS011;19717;42.614;23.418;2023-06-14T07:21:22;2.90;;;2.70;;
33357;SDS011;19717;42.614;23.418;2023-06-14T07:23:48;2.63;;;2.42;;
33357;SDS011;19717;42.614;23.418;2023-06-14T07:26:14;3.00;;;2.70;;
33357;SDS011;19717;42.614;23.418;2023-06-14T07:28:40;3.05;;;2.67;;
33357;SDS011;19717;42.614;23.418;2023-06-14T07:31:09;2.95;;;2.75;;
33357;SDS011;19717;42.614;23.418;2023-06-14T07:33:36;3.25;;;2.80;;
33357;SDS011;19717;42.614;23.418;2023-06-14T07:36:02;2.75;;;2.55;;
33357;SDS011;19717;42.614;23.418;2023-06-14T07:38:29;3.20;;;2.90;;
33357;SDS011;19717;42.614;23.418;2023-06-14T07:40:55;2.72;;;2.53;;
33357;SDS011;19717;42.614;23.418;2023-06-14T07:43:21;2.60;;;2.28;;
33357;SDS011;19717;42.614;23.418;2023-06-14T07:45:47;2.63;;;2.42;;
33357;SDS011;19717;42.614;23.418;2023-06-14T07:48:13;3.08;;;2.78;;
33357;SDS011;19717;42.614;23.418;2023-06-14T07:50:39;2.70;;;2.50;;
33357;SDS011;19717;42.614;23.418;2023-06-14T07:53:08;3.35;;;2.38;;
33357;SDS011;19717;42.614;23.418;2023-06-14T07:55:36;2.47;;;2.30;;
33357;SDS011;19717;42.614;23.418;2023-06-14T07:58:08;3.20;;;2.90;;
33357;SDS011;19717;42.614;23.418;2023-06-14T08:00:35;2.15;;;2.05;;
33357;SDS011;19717;42.614;23.418;2023-06-14T08:03:01;2.70;;;2.50;;
33357;SDS011;19717;42.614;23.418;2023-06-14T08:05:28;2.80;;;2.60;;
33357;SDS011;19717;42.614;23.418;2023-06-14T08:07:54;3.38;;;2.42;;
33357;SDS011;19717;42.614;23.418;2023-06-14T08:10:21;2.75;;;2.55;;
33357;SDS011;19717;42.614;23.418;2023-06-14T08:12:47;2.70;;;2.50;;
33357;SDS011;19717;42.614;23.418;2023-06-14T08:15:15;2.50;;;2.30;;
33357;SDS011;19717;42.614;23.418;2023-06-14T08:17:42;2.28;;;2.17;;
33357;SDS011;19717;42.614;23.418;2023-06-14T08:20:08;2.50;;;2.30;;
33357;SDS011;19717;42.614;23.418;2023-06-14T08:22:34;2.38;;;2.28;;
33357;SDS011;19717;42.614;23.418;2023-06-14T08:25:01;2.45;;;2.25;;
33357;SDS011;19717;42.614;23.418;2023-06-14T08:27:27;2.33;;;2.13;;
33357;SDS011;19717;42.614;23.418;2023-06-14T08:29:53;2.20;;;2.10;;
33357;SDS011;19717;42.614;23.418;2023-06-14T08:32:19;2.10;;;2.00;;
33357;SDS011;19717;42.614;23.418;2023-06-14T08:34:45;2.25;;;2.15;;
33357;SDS011;19717;42.614;23.418;2023-06-14T08:37:11;2.03;;;1.92;;
33357;SDS011;19717;42.614;23.418;2023-06-14T08:39:37;2.25;;;2.15;;
33357;SDS011;19717;42.614;23.418;2023-06-14T08:42:03;2.00;;;1.90;;
33357;SDS011;19717;42.614;23.418;2023-06-14T08:44:31;2.17;;;1.98;;
33357;SDS011;19717;42.614;23.418;2023-06-14T08:46:57;2.15;;;2.00;;
33357;SDS011;19717;42.614;23.418;2023-06-14T08:49:25;2.50;;;1.95;;
33357;SDS011;19717;42.614;23.418;2023-06-14T08:51:58;1.83;;;1.73;;
33357;SDS011;19717;42.614;23.418;2023-06-14T08:54:28;1.77;;;1.67;;
33357;SDS011;19717;42.614;23.418;2023-06-14T08:56:55;2.10;;;1.90;;
33357;SDS011;19717;42.614;23.418;2023-06-14T08:59:25;1.55;;;1.52;;
33357;SDS011;19717;42.614;23.418;2023-06-14T09:01:51;1.88;;;1.77;;
33357;SDS011;19717;42.614;23.418;2023-06-14T09:04:19;1.70;;;1.60;;
33357;SDS011;19717;42.614;23.418;2023-06-14T09:06:46;1.70;;;1.60;;
33357;SDS011;19717;42.614;23.418;2023-06-14T09:09:17;2.00;;;1.90;;
33357;SDS011;19717;42.614;23.418;2023-06-14T09:11:44;1.60;;;1.50;;
33357;SDS011;19717;42.614;23.418;2023-06-14T09:14:10;1.40;;;1.40;;
33357;SDS011;19717;42.614;23.418;2023-06-14T09:16:36;1.60;;;1.50;;
33357;SDS011;19717;42.614;23.418;2023-06-14T09:19:02;1.45;;;1.35;;
33357;SDS011;19717;42.614;23.418;2023-06-14T09:21:28;1.35;;;1.25;;
33357;SDS011;19717;42.614;23.418;2023-06-14T09:24:00;1.30;;;1.30;;
33357;SDS011;19717;42.614;23.418;2023-06-14T09:26:27;1.40;;;1.30;;
33357;SDS011;19717;42.614;23.418;2023-06-14T09:28:54;1.52;;;1.42;;
33357;SDS011;19717;42.614;23.418;2023-06-14T09:31:20;1.70;;;1.60;;
33357;SDS011;19717;42.614;23.418;2023-06-14T09:33:50;1.55;;;1.48;;
33357;SDS011;19717;42.614;23.418;2023-06-14T09:36:23;1.23;;;1.23;;
33357;SDS011;19717;42.614;23.418;2023-06-14T09:38:53;1.50;;;1.40;;
33357;SDS011;19717;42.614;23.418;2023-06-14T09:41:20;1.20;;;1.20;;
33357;SDS011;19717;42.614;23.418;2023-06-14T09:43:46;1.70;;;1.50;;
33357;SDS011;19717;42.614;23.418;2023-06-14T09:46:13;1.30;;;1.20;;
33357;SDS011;19717;42.614;23.418;2023-06-14T09:48:39;1.40;;;1.30;;
33357;SDS011;19717;42.614;23.418;2023-06-14T09:51:09;1.20;;;1.20;;
33357;SDS011;19717;42.614;23.418;2023-06-14T09:53:35;1.83;;;1.30;;
33357;SDS011;19717;42.614;23.418;2023-06-14T09:56:02;1.35;;;1.33;;
33357;SDS011;19717;42.614;23.418;2023-06-14T09:58:30;1.30;;;1.30;;
33357;SDS011;19717;42.614;23.418;2023-06-14T10:00:56;1.13;;;1.13;;
33357;SDS011;19717;42.614;23.418;2023-06-14T10:03:27;1.17;;;1.17;;
33357;SDS011;19717;42.614;23.418;2023-06-14T10:05:55;1.40;;;1.30;;
33357;SDS011;19717;42.614;23.418;2023-06-14T10:08:23;1.38;;;1.27;;
33357;SDS011;19717;42.614;23.418;2023-06-14T10:10:51;1.30;;;1.30;;
33357;SDS011;19717;42.614;23.418;2023-06-14T10:13:17;1.27;;;1.17;;
33357;SDS011;19717;42.614;23.418;2023-06-14T10:18:33;2.08;;;1.13;;
33357;SDS011;19717;42.614;23.418;2023-06-14T10:21:06;1.30;;;1.20;;
33357;SDS011;19717;42.614;23.418;2023-06-14T10:23:38;1.45;;;1.30;;
33357;SDS011;19717;42.614;23.418;2023-06-14T10:26:06;1.10;;;1.10;;
33357;SDS011;19717;42.614;23.418;2023-06-14T10:28:32;1.02;;;1.02;;
33357;SDS011;19717;42.614;23.418;2023-06-14T10:31:09;1.00;;;1.00;;
33357;SDS011;19717;42.614;23.418;2023-06-14T10:33:38;1.00;;;1.00;;
33357;SDS011;19717;42.614;23.418;2023-06-14T10:36:38;1.05;;;1.05;;
33357;SDS011;19717;42.614;23.418;2023-06-14T10:39:20;0.80;;;0.80;;
33357;SDS011;19717;42.614;23.418;2023-06-14T10:41:53;0.90;;;0.90;;
33357;SDS011;19717;42.614;23.418;2023-06-14T10:46:58;0.90;;;0.90;;
33357;SDS011;19717;42.614;23.418;2023-06-14T10:49:38;0.80;;;0.80;;
33357;SDS011;19717;42.614;23.418;2023-06-14T10:52:10;1.15;;;0.90;;
33357;SDS011;19717;42.614;23.418;2023-06-14T10:57:44;0.90;;;0.90;;
33357;SDS011;19717;42.614;23.418;2023-06-14T11:00:17;1.10;;;0.90;;
33357;SDS011;19717;42.614;23.418;2023-06-14T11:05:35;0.80;;;0.80;;
33357;SDS011;19717;42.614;23.418;2023-06-14T11:08:16;0.80;;;0.80;;
33357;SDS011;19717;42.614;23.418;2023-06-14T11:10:44;0.80;;;0.80;;
33357;SDS011;19717;42.614;23.418;2023-06-14T11:13:10;0.80;;;0.80;;
33357;SDS011;19717;42.614;23.418;2023-06-14T11:15:37;0.80;;;0.80;;
33357;SDS011;19717;42.614;23.418;2023-06-14T11:18:07;0.82;;;0.82;;
33357;SDS011;19717;42.614;23.418;2023-06-14T11:20:35;0.80;;;0.80;;
33357;SDS011;19717;42.614;23.418;2023-06-14T11:23:01;0.80;;;0.80;;
33357;SDS011;19717;42.614;23.418;2023-06-14T11:25:28;0.90;;;0.90;;
33357;SDS011;19717;42.614;23.418;2023-06-14T11:27:54;0.70;;;0.70;;
33357;SDS011;19717;42.614;23.418;2023-06-14T11:30:20;0.90;;;0.90;;
33357;SDS011;19717;42.614;23.418;2023-06-14T11:32:47;2.47;;;0.88;;
33357;SDS011;19717;42.614;23.418;2023-06-14T11:35:13;0.80;;;0.80;;
33357;SDS011;19717;42.614;23.418;2023-06-14T11:37:39;0.70;;;0.70;;
33357;SDS011;19717;42.614;23.418;2023-06-14T11:40:07;0.90;;;0.90;;
33357;SDS011;19717;42.614;23.418;2023-06-14T11:42:35;0.93;;;0.90;;
33357;SDS011;19717;42.614;23.418;2023-06-14T11:45:07;0.90;;;0.90;;
33357;SDS011;19717;42.614;23.418;2023-06-14T11:47:33;0.70;;;0.70;;
33357;SDS011;19717;42.614;23.418;2023-06-14T11:50:05;1.05;;;0.80;;
33357;SDS011;19717;42.614;23.418;2023-06-14T11:52:32;0.73;;;0.73;;
33357;SDS011;19717;42.614;23.418;2023-06-14T11:54:58;0.70;;;0.70;;
33357;SDS011;19717;42.614;23.418;2023-06-14T11:57:25;0.70;;;0.70;;
33357;SDS011;19717;42.614;23.418;2023-06-14T11:59:51;0.70;;;0.70;;
33357;SDS011;19717;42.614;23.418;2023-06-14T12:02:18;0.80;;;0.80;;
33357;SDS011;19717;42.614;23.418;2023-06-14T12:04:46;0.80;;;0.80;;
33357;SDS011;19717;42.614;23.418;2023-06-14T12:07:16;0.90;;;0.90;;
33357;SDS011;19717;42.614;23.418;2023-06-14T12:12:11;1.55;;;0.90;;
33357;SDS011;19717;42.614;23.418;2023-06-14T12:14:39;0.90;;;0.90;;
33357;SDS011;19717;42.614;23.418;2023-06-14T12:17:07;1.45;;;0.85;;
33357;SDS011;19717;42.614;23.418;2023-06-14T12:19:43;0.60;;;0.60;;
33357;SDS011;19717;42.614;23.418;2023-06-14T12:22:10;0.80;;;0.80;;
33357;SDS011;19717;42.614;23.418;2023-06-14T12:24:36;0.77;;;0.77;;
33357;SDS011;19717;42.614;23.418;2023-06-14T12:27:03;0.63;;;0.63;;
33357;SDS011;19717;42.614;23.418;2023-06-14T12:29:32;0.90;;;0.90;;
33357;SDS011;19717;42.614;23.418;2023-06-14T12:31:58;0.60;;;0.60;;
33357;SDS011;19717;42.614;23.418;2023-06-14T12:34:25;1.95;;;0.85;;
33357;SDS011;19717;42.614;23.418;2023-06-14T12:36:54;0.73;;;0.73;;
33357;SDS011;19717;42.614;23.418;2023-06-14T12:39:20;0.60;;;0.60;;
33357;SDS011;19717;42.614;23.418;2023-06-14T12:41:47;0.80;;;0.80;;
33357;SDS011;19717;42.614;23.418;2023-06-14T12:44:14;2.15;;;0.90;;
33357;SDS011;19717;42.614;23.418;2023-06-14T12:46:40;0.80;;;0.80;;
33357;SDS011;19717;42.614;23.418;2023-06-14T12:49:08;1.08;;;1.05;;
33357;SDS011;19717;42.614;23.418;2023-06-14T12:51:35;0.90;;;0.90;;
33357;SDS011;19717;42.614;23.418;2023-06-14T12:54:01;1.00;;;1.00;;
33357;SDS011;19717;42.614;23.418;2023-06-14T12:56:28;0.98;;;0.98;;
33357;SDS011;19717;42.614;23.418;2023-06-14T12:58:54;1.55;;;1.20;;
33357;SDS011;19717;42.614;23.418;2023-06-14T13:01:23;0.80;;;0.80;;
33357;SDS011;19717;42.614;23.418;2023-06-14T13:03:51;2.70;;;1.00;;
33357;SDS011;19717;42.614;23.418;2023-06-14T13:06:21;1.13;;;1.13;;
33357;SDS011;19717;42.614;23.418;2023-06-14T13:08:48;1.08;;;1.08;;
33357;SDS011;19717;42.614;23.418;2023-06-14T13:11:14;1.42;;;1.33;;
33357;SDS011;19717;42.614;23.418;2023-06-14T13:13:40;1.40;;;1.30;;
33357;SDS011;19717;42.614;23.418;2023-06-14T13:16:06;1.30;;;1.30;;
33357;SDS011;19717;42.614;23.418;2023-06-14T13:18:33;1.30;;;1.30;;
33357;SDS011;19717;42.614;23.418;2023-06-14T13:20:59;1.50;;;1.40;;
33357;SDS011;19717;42.614;23.418;2023-06-14T13:23:26;1.45;;;1.35;;
33357;SDS011;19717;42.614;23.418;2023-06-14T13:25:54;1.70;;;1.52;;
33357;SDS011;19717;42.614;23.418;2023-06-14T13:28:20;1.67;;;1.58;;
33357;SDS011;19717;42.614;23.418;2023-06-14T13:30:47;1.45;;;1.35;;
33357;SDS011;19717;42.614;23.418;2023-06-14T13:33:13;1.67;;;1.58;;
33357;SDS011;19717;42.614;23.418;2023-06-14T13:35:39;2.63;;;1.75;;
33357;SDS011;19717;42.614;23.418;2023-06-14T13:38:05;1.80;;;1.67;;
33357;SDS011;19717;42.614;23.418;2023-06-14T13:40:34;1.60;;;1.50;;
33357;SDS011;19717;42.614;23.418;2023-06-14T13:43:00;1.63;;;1.52;;
33357;SDS011;19717;42.614;23.418;2023-06-14T13:45:26;1.27;;;1.25;;
33357;SDS011;19717;42.614;23.418;2023-06-14T13:47:52;1.05;;;1.05;;
33357;SDS011;19717;42.614;23.418;2023-06-14T13:50:19;1.30;;;1.30;;
33357;SDS011;19717;42.614;23.418;2023-06-14T13:52:48;1.52;;;1.42;;
33357;SDS011;19717;42.614;23.418;2023-06-14T13:55:14;1.60;;;1.50;;
33357;SDS011;19717;42.614;23.418;2023-06-14T13:57:41;1.85;;;1.30;;
33357;SDS011;19717;42.614;23.418;2023-06-14T14:00:08;1.40;;;1.30;;
33357;SDS011;19717;42.614;23.418;2023-06-14T14:02:34;1.52;;;1.42;;
33357;SDS011;19717;42.614;23.418;2023-06-14T14:05:00;1.20;;;1.20;;
33357;SDS011;19717;42.614;23.418;2023-06-14T14:07:26;1.10;;;1.10;;
33357;SDS011;19717;42.614;23.418;2023-06-14T14:09:54;1.10;;;1.10;;
33357;SDS011;19717;42.614;23.418;2023-06-14T14:12:22;1.58;;;1.30;;
33357;SDS011;19717;42.614;23.418;2023-06-14T14:14:48;1.10;;;1.10;;
33357;SDS011;19717;42.614;23.418;2023-06-14T14:17:15;1.40;;;1.30;;
33357;SDS011;19717;42.614;23.418;2023-06-14T14:19:41;1.20;;;1.20;;
33357;SDS011;19717;42.614;23.418;2023-06-14T14:22:07;1.30;;;1.20;;
33357;SDS011;19717;42.614;23.418;2023-06-14T14:24:33;1.40;;;1.30;;
33357;SDS011;19717;42.614;23.418;2023-06-14T14:26:59;1.30;;;1.30;;
33357;SDS011;19717;42.614;23.418;2023-06-14T14:29:25;1.10;;;1.10;;
33357;SDS011;19717;42.614;23.418;2023-06-14T14:31:54;1.45;;;1.35;;
33357;SDS011;19717;42.614;23.418;2023-06-14T14:34:21;1.65;;;1.55;;
33357;SDS011;19717;42.614;23.418;2023-06-14T14:36:47;1.60;;;1.50;;
33357;SDS011;19717;42.614;23.418;2023-06-14T14:39:13;1.55;;;1.45;;
33357;SDS011;19717;42.614;23.418;2023-06-14T14:41:39;1.52;;;1.42;;
33357;SDS011;19717;42.614;23.418;2023-06-14T14:44:06;1.50;;;1.40;;
33357;SDS011;19717;42.614;23.418;2023-06-14T14:46:32;1.50;;;1.40;;